createdAt,value
2023-05-05T00:01:07.831Z,16.17
2023-05-05T00:03:37.372Z,14.77
2023-05-05T00:06:07.166Z,13.95
2023-05-05T00:08:36.831Z,14.07
2023-05-05T00:11:06.134Z,13.68
2023-05-05T00:13:35.437Z,13.05
2023-05-05T00:16:05.222Z,14.10
2023-05-05T00:18:34.885Z,13.65
2023-05-05T00:21:05.693Z,13.02
2023-05-05T00:23:34.872Z,12.73
2023-05-05T00:26:04.317Z,13.35
2023-05-05T00:28:33.585Z,13.02
2023-05-05T00:31:03.675Z,13.40
2023-05-05T00:33:32.720Z,13.10
2023-05-05T00:36:02.618Z,12.75
2023-05-05T00:38:31.664Z,12.57
2023-05-05T00:41:01.338Z,13.32
2023-05-05T00:43:30.632Z,13.13
2023-05-05T00:46:28.129Z,13.73
2023-05-05T00:48:59.011Z,11.82
2023-05-05T00:51:30.073Z,11.63
2023-05-05T00:54:00.257Z,11.57
2023-05-05T00:56:29.741Z,11.68
2023-05-05T00:59:00.387Z,11.20
2023-05-05T01:01:29.779Z,10.55
2023-05-05T01:03:58.991Z,11.40
2023-05-05T01:06:28.480Z,11.57
2023-05-05T01:09:13.908Z,11.95
2023-05-05T01:12:06.979Z,11.32
2023-05-05T01:14:46.645Z,11.82
2023-05-05T01:17:22.713Z,11.05
2023-05-05T01:20:08.768Z,11.57
2023-05-05T01:22:47.418Z,12.07
2023-05-05T01:25:47.617Z,12.02
2023-05-05T01:28:57.165Z,11.95
2023-05-05T01:31:58.063Z,12.20
2023-05-05T01:34:43.325Z,12.05
2023-05-05T01:37:30.770Z,12.90
2023-05-05T01:40:06.489Z,13.43
2023-05-05T01:42:38.638Z,14.80
2023-05-05T01:45:11.045Z,13.23
2023-05-05T01:47:44.187Z,14.43
2023-05-05T01:50:15.361Z,13.38
2023-05-05T01:52:46.435Z,12.45
2023-05-05T01:55:19.610Z,11.25
2023-05-05T01:57:52.557Z,9.82
2023-05-05T02:00:23.174Z,10.80
2023-05-05T02:02:53.299Z,10.57
2023-05-05T02:05:24.633Z,10.65
2023-05-05T02:07:59.312Z,10.50
2023-05-05T02:10:30.371Z,10.38
2023-05-05T02:13:03.041Z,11.95
2023-05-05T02:15:34.954Z,11.63
2023-05-05T02:18:06.884Z,10.70
2023-05-05T02:20:40.119Z,10.75
2023-05-05T02:23:09.919Z,11.10
2023-05-05T02:25:43.241Z,9.77
2023-05-05T02:28:44.553Z,10.50
2023-05-05T02:31:15.338Z,10.43
2023-05-05T02:33:45.938Z,9.50
2023-05-05T02:36:24.420Z,9.98
2023-05-05T02:39:05.868Z,9.63
2023-05-05T02:41:41.769Z,8.52
2023-05-05T02:44:21.413Z,7.35
2023-05-05T02:46:51.240Z,7.43
2023-05-05T02:49:21.312Z,7.50
2023-05-05T02:51:50.856Z,7.63
2023-05-05T02:54:26.284Z,7.93
2023-05-05T02:56:58.627Z,7.45
2023-05-05T03:00:06.989Z,6.82
2023-05-05T03:02:58.980Z,6.57
2023-05-05T03:08:29.603Z,7.20
2023-05-05T03:13:48.650Z,6.57
2023-05-05T03:16:24.027Z,7.43
2023-05-05T03:18:55.473Z,12.43
2023-05-05T03:21:25.759Z,12.48
2023-05-05T03:23:54.922Z,16.70
2023-05-05T03:26:25.847Z,16.10
2023-05-05T03:28:55.048Z,16.75
2023-05-05T03:31:29.858Z,16.20
2023-05-05T03:34:02.245Z,16.90
2023-05-05T03:36:38.092Z,14.20
2023-05-05T03:39:09.938Z,16.90
2023-05-05T03:41:39.960Z,16.15
2023-05-05T03:44:11.044Z,15.38
2023-05-05T03:46:40.584Z,15.90
2023-05-05T03:49:13.324Z,12.93
2023-05-05T03:51:44.523Z,14.18
2023-05-05T03:54:15.015Z,14.80
2023-05-05T03:56:44.648Z,15.57
2023-05-05T03:59:13.823Z,14.65
2023-05-05T04:01:43.976Z,16.45
2023-05-05T04:04:13.384Z,16.13
2023-05-05T04:06:43.709Z,16.55
2023-05-05T04:09:13.540Z,14.93
2023-05-05T04:11:43.330Z,14.85
2023-05-05T04:14:13.421Z,15.55
2023-05-05T04:16:47.806Z,17.48
2023-05-05T04:19:17.259Z,17.13
2023-05-05T04:21:47.128Z,16.90
2023-05-05T04:24:16.569Z,15.65
2023-05-05T04:26:46.941Z,14.65
2023-05-05T04:29:16.630Z,14.13
2023-05-05T04:31:46.376Z,14.70
2023-05-05T04:34:16.572Z,15.32
2023-05-05T04:36:46.551Z,15.82
2023-05-05T04:39:16.164Z,13.80
2023-05-05T04:41:45.783Z,13.45
2023-05-05T04:44:17.428Z,12.93
2023-05-05T04:46:47.008Z,10.25
2023-05-05T04:49:16.303Z,11.43
2023-05-05T04:51:45.837Z,12.00
2023-05-05T04:54:15.195Z,11.82
2023-05-05T04:56:44.941Z,12.63
2023-05-05T04:59:14.926Z,12.45
2023-05-05T05:01:44.398Z,11.98
2023-05-05T05:04:14.025Z,11.13
2023-05-05T05:06:43.675Z,12.40
2023-05-05T05:09:13.253Z,10.90
2023-05-05T05:11:42.754Z,10.98
2023-05-05T05:14:12.127Z,11.65
2023-05-05T05:16:41.692Z,9.82
2023-05-05T05:19:11.033Z,10.10
2023-05-05T05:21:40.813Z,8.80
2023-05-05T05:24:12.260Z,9.18
2023-05-05T05:26:41.670Z,9.02
2023-05-05T05:29:11.214Z,9.00
2023-05-05T05:31:41.229Z,9.82
2023-05-05T05:34:12.588Z,8.48
2023-05-05T05:36:43.744Z,8.68
2023-05-05T05:39:13.549Z,8.60
2023-05-05T05:41:44.215Z,7.45
2023-05-05T05:44:13.761Z,7.90
2023-05-05T05:46:43.967Z,7.13
2023-05-05T05:49:13.936Z,6.80
2023-05-05T05:51:43.817Z,7.10
2023-05-05T05:54:13.135Z,9.52
2023-05-05T05:56:43.949Z,9.52
2023-05-05T05:59:14.354Z,10.40
2023-05-05T06:01:44.439Z,10.55
2023-05-05T06:04:14.400Z,11.65
2023-05-05T06:06:44.087Z,13.00
2023-05-05T06:09:14.310Z,13.75
2023-05-05T06:11:44.862Z,14.52
2023-05-05T06:14:14.897Z,13.38
2023-05-05T06:16:45.390Z,12.95
2023-05-05T06:19:18.976Z,13.15
2023-05-05T06:21:48.709Z,13.60
2023-05-05T06:24:18.427Z,13.40
2023-05-05T06:26:48.138Z,14.50
2023-05-05T06:29:17.656Z,13.98
2023-05-05T06:31:47.324Z,12.02
2023-05-05T06:34:16.742Z,11.02
2023-05-05T06:36:46.227Z,11.07
2023-05-05T06:39:16.255Z,12.13
2023-05-05T06:41:45.680Z,11.05
2023-05-05T06:44:15.118Z,10.13
2023-05-05T06:46:44.896Z,10.25
2023-05-05T06:49:15.396Z,10.13
2023-05-05T06:51:44.935Z,10.43
2023-05-05T06:54:15.528Z,9.73
2023-05-05T06:56:45.564Z,9.52
2023-05-05T06:59:14.949Z,9.20
2023-05-05T07:01:44.602Z,8.27
2023-05-05T07:04:14.584Z,8.40
2023-05-05T07:06:44.513Z,8.68
2023-05-05T07:09:15.238Z,8.20
2023-05-05T07:11:46.866Z,7.53
2023-05-05T07:14:16.694Z,8.10
2023-05-05T07:16:45.994Z,10.82
2023-05-05T07:19:15.658Z,12.13
2023-05-05T07:24:14.200Z,16.40
2023-05-05T07:26:44.387Z,15.35
2023-05-05T07:29:14.436Z,15.85
2023-05-05T07:31:44.038Z,15.75
2023-05-05T07:34:13.586Z,16.83
2023-05-05T07:36:44.296Z,15.25
2023-05-05T07:39:16.042Z,14.98
2023-05-05T07:41:46.324Z,13.98
2023-05-05T07:44:15.568Z,14.25
2023-05-05T07:46:45.202Z,14.65
2023-05-05T07:49:14.468Z,14.10
2023-05-05T07:51:43.779Z,13.30
2023-05-05T07:54:14.292Z,12.52
2023-05-05T07:56:43.457Z,11.82
2023-05-05T07:59:14.108Z,10.60
2023-05-05T08:01:43.549Z,10.70
2023-05-05T08:04:12.814Z,9.23
2023-05-05T08:06:42.413Z,9.57
2023-05-05T08:09:12.233Z,9.35
2023-05-05T08:11:42.473Z,10.43
2023-05-05T08:14:12.227Z,9.70
2023-05-05T08:16:42.157Z,8.68
2023-05-05T08:19:25.108Z,9.45
2023-05-05T08:22:00.017Z,9.23
2023-05-05T08:24:30.800Z,11.30
2023-05-05T08:27:00.065Z,9.10
2023-05-05T08:29:29.517Z,9.20
2023-05-05T08:31:59.202Z,9.38
2023-05-05T08:34:28.620Z,8.98
2023-05-05T08:36:57.785Z,9.13
2023-05-05T08:39:27.352Z,9.82
2023-05-05T08:41:56.426Z,9.02
2023-05-05T08:44:28.066Z,8.65
2023-05-05T08:46:58.106Z,6.75
2023-05-05T08:49:28.880Z,5.93
2023-05-05T08:52:02.900Z,5.10
2023-05-05T08:54:36.523Z,6.05
2023-05-05T08:57:11.521Z,5.60
2023-05-05T08:59:42.638Z,4.82
2023-05-05T09:02:13.972Z,4.75
2023-05-05T09:04:44.387Z,4.80
2023-05-05T09:07:14.116Z,4.57
2023-05-05T09:09:44.155Z,4.25
2023-05-05T09:12:18.990Z,4.25
2023-05-05T09:14:48.828Z,4.35
2023-05-05T09:17:28.113Z,3.90
2023-05-05T09:20:11.549Z,3.95
2023-05-05T09:22:43.737Z,4.13
2023-05-05T09:25:17.700Z,4.63
2023-05-05T09:27:49.925Z,5.65
2023-05-05T09:30:25.734Z,4.75
2023-05-05T09:32:56.736Z,5.25
2023-05-05T09:35:28.142Z,4.88
2023-05-05T09:37:58.071Z,4.78
2023-05-05T09:40:27.935Z,4.68
2023-05-05T09:43:04.043Z,5.30
2023-05-05T09:45:41.318Z,5.75
2023-05-05T09:48:29.266Z,5.00
2023-05-05T09:51:00.114Z,5.13
2023-05-05T09:53:41.184Z,5.43
2023-05-05T09:56:11.288Z,5.53
2023-05-05T09:58:40.870Z,5.78
2023-05-05T10:01:24.329Z,5.65
2023-05-05T10:03:53.812Z,5.68
2023-05-05T10:06:41.358Z,5.20
2023-05-05T10:09:10.585Z,5.65
2023-05-05T10:11:42.997Z,5.43
2023-05-05T10:14:18.977Z,4.80
2023-05-05T10:16:51.773Z,4.95
2023-05-05T10:19:23.263Z,5.50
2023-05-05T10:22:00.834Z,6.03
2023-05-05T10:24:44.351Z,5.93
2023-05-05T10:27:22.086Z,5.68
2023-05-05T10:30:08.275Z,5.30
2023-05-05T10:33:07.912Z,6.03
2023-05-05T10:35:53.737Z,7.03
2023-05-05T10:38:26.217Z,5.60
2023-05-05T10:43:26.917Z,5.45
2023-05-05T10:45:57.542Z,5.97
2023-05-05T10:48:52.376Z,5.65
2023-05-05T10:51:41.183Z,5.82
2023-05-05T10:54:48.023Z,6.20
2023-05-05T10:57:20.173Z,5.50
2023-05-05T10:59:49.804Z,5.10
2023-05-05T11:02:29.705Z,5.40
2023-05-05T11:05:05.763Z,5.20
2023-05-05T11:07:38.437Z,5.65
2023-05-05T11:10:10.341Z,5.53
2023-05-05T11:13:12.621Z,6.20
2023-05-05T11:15:42.816Z,6.10
2023-05-05T11:18:40.309Z,5.85
2023-05-05T11:21:19.568Z,6.68
2023-05-05T11:23:51.022Z,5.80
2023-05-05T11:26:41.638Z,5.45
2023-05-05T11:29:11.341Z,5.57
2023-05-05T11:31:40.574Z,5.55
2023-05-05T11:34:29.491Z,5.70
2023-05-05T11:37:06.089Z,6.07
2023-05-05T11:39:58.298Z,5.93
2023-05-05T11:42:28.271Z,6.90
2023-05-05T11:44:57.965Z,7.07
2023-05-05T11:47:29.471Z,6.70
2023-05-05T11:49:59.333Z,6.47
2023-05-05T11:52:29.246Z,6.45
2023-05-05T11:55:02.482Z,6.63
2023-05-05T11:57:32.433Z,6.53
2023-05-05T12:00:05.344Z,6.30
2023-05-05T12:02:34.883Z,6.57
2023-05-05T12:05:04.498Z,6.43
2023-05-05T12:07:35.095Z,6.70
2023-05-05T12:10:04.735Z,6.50
2023-05-05T12:12:41.985Z,6.53
2023-05-05T12:15:11.814Z,6.40
2023-05-05T12:17:45.101Z,6.78
2023-05-05T12:20:15.131Z,5.88
2023-05-05T12:22:44.798Z,5.75
2023-05-05T12:25:13.998Z,6.13
2023-05-05T12:27:54.444Z,4.88
2023-05-05T12:30:24.675Z,4.95
2023-05-05T12:33:03.204Z,4.18
2023-05-05T12:35:33.471Z,4.35
2023-05-05T12:38:03.467Z,4.60
2023-05-05T12:40:50.613Z,4.15
2023-05-05T12:43:31.337Z,3.95
2023-05-05T12:46:06.736Z,4.18
2023-05-05T12:48:39.085Z,4.10
2023-05-05T12:51:20.952Z,4.30
2023-05-05T12:54:03.171Z,4.03
2023-05-05T12:56:36.685Z,4.85
2023-05-05T12:59:14.133Z,4.72
2023-05-05T13:01:57.405Z,5.20
2023-05-05T13:04:28.607Z,5.68
2023-05-05T13:07:15.385Z,5.63
2023-05-05T13:09:45.197Z,5.63
2023-05-05T13:12:15.110Z,5.38
2023-05-05T13:14:44.841Z,6.07
2023-05-05T13:17:15.112Z,5.97
2023-05-05T13:19:47.329Z,5.72
2023-05-05T13:22:16.897Z,5.07
2023-05-05T13:24:52.457Z,5.00
2023-05-05T13:27:23.168Z,5.22
2023-05-05T13:29:52.823Z,5.82
2023-05-05T13:32:23.271Z,5.38
2023-05-05T13:34:53.033Z,5.72
2023-05-05T13:37:22.566Z,6.45
2023-05-05T13:39:52.613Z,6.25
2023-05-05T13:42:21.708Z,6.28
2023-05-05T13:44:51.454Z,6.88
2023-05-05T13:47:20.673Z,6.32
2023-05-05T13:49:50.391Z,6.90
2023-05-05T13:52:19.460Z,6.93
2023-05-05T13:54:49.263Z,7.03
2023-05-05T13:57:18.583Z,7.05
2023-05-05T13:59:48.463Z,6.85
2023-05-05T14:02:17.869Z,6.85
2023-05-05T14:04:47.416Z,7.78
2023-05-05T14:07:17.040Z,6.28
2023-05-05T14:09:55.289Z,7.05
2023-05-05T14:12:24.733Z,7.00
2023-05-05T14:14:53.926Z,7.38
2023-05-05T14:17:23.437Z,7.13
2023-05-05T14:19:52.993Z,7.40
2023-05-05T14:22:22.535Z,7.70
2023-05-05T14:24:52.002Z,8.10
2023-05-05T14:27:21.986Z,8.02
2023-05-05T14:29:51.513Z,8.05
2023-05-05T14:32:21.863Z,7.63
2023-05-05T14:34:51.002Z,7.32
2023-05-05T14:37:20.694Z,7.70
2023-05-05T14:39:50.106Z,9.70
2023-05-05T14:42:19.613Z,9.73
2023-05-05T14:44:49.168Z,9.75
2023-05-05T14:47:18.623Z,10.23
2023-05-05T14:49:48.157Z,10.02
2023-05-05T14:52:17.741Z,9.25
2023-05-05T14:54:47.627Z,9.82
2023-05-05T14:57:17.445Z,9.93
2023-05-05T14:59:46.842Z,9.75
2023-05-05T15:02:15.990Z,10.45
2023-05-05T15:04:45.252Z,9.93
2023-05-05T15:07:15.070Z,10.70
2023-05-05T15:09:44.622Z,10.23
2023-05-05T15:12:13.946Z,11.35
2023-05-05T15:14:43.917Z,10.55
2023-05-05T15:17:13.086Z,11.38
2023-05-05T15:19:42.721Z,11.13
2023-05-05T15:22:11.908Z,11.25
2023-05-05T15:24:41.130Z,11.90
2023-05-05T15:27:10.416Z,11.27
2023-05-05T15:29:40.362Z,11.35
2023-05-05T15:32:09.416Z,13.13
2023-05-05T15:34:39.337Z,11.53
2023-05-05T15:37:08.700Z,11.50
2023-05-05T15:39:38.050Z,11.55
2023-05-05T15:42:08.085Z,11.32
2023-05-05T15:44:37.757Z,12.27
2023-05-05T15:47:09.110Z,12.80
2023-05-05T15:49:38.723Z,13.00
2023-05-05T15:52:08.995Z,14.20
2023-05-05T15:54:38.750Z,14.65
2023-05-05T15:57:07.909Z,15.02
2023-05-05T15:59:38.301Z,15.50
2023-05-05T16:02:07.920Z,15.30
2023-05-05T16:04:37.405Z,15.80
2023-05-05T16:07:07.792Z,16.40
2023-05-05T16:09:38.084Z,16.48
2023-05-05T16:12:07.571Z,16.90
2023-05-05T16:14:37.199Z,17.67
2023-05-05T16:17:07.070Z,18.02
2023-05-05T16:19:37.142Z,18.30
2023-05-05T16:22:06.724Z,17.77
2023-05-05T16:24:35.871Z,19.48
2023-05-05T16:27:05.717Z,18.83
2023-05-05T16:29:35.040Z,19.35
2023-05-05T16:32:04.104Z,19.60
2023-05-05T16:34:33.668Z,21.45
2023-05-05T16:37:03.011Z,21.42
2023-05-05T16:39:34.120Z,22.23
2023-05-05T16:42:04.539Z,22.25
2023-05-05T16:44:34.014Z,23.40
2023-05-05T16:47:03.176Z,23.10
2023-05-05T16:49:32.826Z,23.35
2023-05-05T16:52:02.545Z,22.02
2023-05-05T16:54:31.869Z,22.20
2023-05-05T16:57:01.538Z,21.80
2023-05-05T16:59:31.627Z,23.55
2023-05-05T17:02:01.304Z,23.15
2023-05-05T17:04:31.074Z,22.25
2023-05-05T17:07:00.252Z,22.73
2023-05-05T17:09:29.378Z,21.92
2023-05-05T17:11:58.854Z,22.40
2023-05-05T17:14:28.365Z,20.80
2023-05-05T17:16:58.185Z,21.42
2023-05-05T17:19:27.851Z,22.20
2023-05-05T17:21:57.168Z,21.42
2023-05-05T17:24:26.991Z,21.02
2023-05-05T17:26:57.438Z,21.02
2023-05-05T17:29:27.589Z,20.20
2023-05-05T17:31:56.812Z,20.98
2023-05-05T17:34:26.191Z,21.15
2023-05-05T17:36:55.588Z,20.20
2023-05-05T17:39:24.849Z,19.58
2023-05-05T17:41:54.209Z,20.48
2023-05-05T17:44:23.301Z,19.52
2023-05-05T17:46:53.317Z,18.48
2023-05-05T17:49:22.570Z,20.38
2023-05-05T17:51:51.938Z,19.65
2023-05-05T17:54:21.161Z,18.58
2023-05-05T17:56:50.545Z,18.58
2023-05-05T17:59:19.713Z,18.23
2023-05-05T18:01:49.719Z,19.33
2023-05-05T18:04:19.103Z,18.17
2023-05-05T18:06:48.247Z,18.85
2023-05-05T18:09:18.395Z,17.48
2023-05-05T18:11:47.670Z,17.58
2023-05-05T18:14:18.723Z,17.08
2023-05-05T18:16:51.393Z,16.17
2023-05-05T18:19:24.992Z,16.25
2023-05-05T18:21:58.534Z,16.85
2023-05-05T18:24:29.237Z,18.48
2023-05-05T18:26:59.350Z,17.25
2023-05-05T18:29:29.678Z,17.77
2023-05-05T18:31:59.032Z,18.38
2023-05-05T18:34:28.428Z,17.88
2023-05-05T18:36:58.504Z,18.70
2023-05-05T18:39:27.854Z,17.48
2023-05-05T18:41:56.963Z,18.15
2023-05-05T18:44:26.721Z,18.90
2023-05-05T18:46:56.001Z,20.13
2023-05-05T18:49:26.221Z,20.08
2023-05-05T18:51:57.713Z,20.55
2023-05-05T18:54:27.107Z,20.95
2023-05-05T18:56:56.231Z,21.83
2023-05-05T18:59:25.990Z,23.08
2023-05-05T19:01:55.747Z,24.50
2023-05-05T19:04:31.476Z,27.10
2023-05-05T19:07:02.150Z,24.38
2023-05-05T19:09:31.685Z,25.60
2023-05-05T19:12:00.840Z,26.60
2023-05-05T19:14:30.788Z,27.85
2023-05-05T19:17:00.550Z,28.02
2023-05-05T19:19:30.012Z,30.15
2023-05-05T19:22:00.666Z,31.20
2023-05-05T19:24:31.045Z,32.58
2023-05-05T19:27:00.382Z,35.33
2023-05-05T19:29:32.058Z,33.75
2023-05-05T19:32:03.579Z,35.75
2023-05-05T19:34:32.962Z,35.78
2023-05-05T19:37:02.456Z,36.22
2023-05-05T19:39:31.806Z,36.22
2023-05-05T19:42:00.880Z,32.92
2023-05-05T19:44:30.648Z,33.42
2023-05-05T19:47:00.032Z,32.38
2023-05-05T19:49:29.174Z,32.85
2023-05-05T19:52:00.020Z,31.25
2023-05-05T19:54:30.275Z,30.70
2023-05-05T19:56:59.612Z,32.08
2023-05-05T19:59:30.023Z,32.65
2023-05-05T20:02:00.008Z,31.77
2023-05-05T20:04:29.425Z,30.38
2023-05-05T20:06:58.857Z,31.17
2023-05-05T20:09:28.738Z,31.38
2023-05-05T20:12:00.483Z,31.73
2023-05-05T20:14:29.853Z,34.30
2023-05-05T20:16:59.310Z,35.38
2023-05-05T20:19:28.572Z,35.08
2023-05-05T20:21:58.343Z,38.03
2023-05-05T20:24:29.575Z,40.65
2023-05-05T20:26:59.201Z,41.72
2023-05-05T20:29:28.364Z,41.60
2023-05-05T20:32:02.491Z,42.40
2023-05-05T20:34:32.373Z,41.10
2023-05-05T20:37:01.891Z,39.70
2023-05-05T20:39:35.004Z,40.95
2023-05-05T20:42:04.485Z,38.70
2023-05-05T20:44:34.061Z,38.97
2023-05-05T20:47:04.020Z,40.35
2023-05-05T20:49:33.145Z,39.40
2023-05-05T20:52:02.412Z,38.80
2023-05-05T20:54:35.209Z,36.95
2023-05-05T20:57:04.617Z,36.03
2023-05-05T20:59:34.056Z,36.30
2023-05-05T21:02:03.607Z,36.55
2023-05-05T21:04:33.138Z,36.40
2023-05-05T21:07:02.297Z,36.28
2023-05-05T21:09:32.606Z,34.67
2023-05-05T21:12:02.128Z,35.10
2023-05-05T21:14:31.303Z,35.00
2023-05-05T21:17:00.635Z,34.15
2023-05-05T21:19:29.772Z,34.10
2023-05-05T21:22:00.196Z,37.35
2023-05-05T21:24:29.578Z,35.08
2023-05-05T21:26:58.761Z,35.72
2023-05-05T21:29:27.937Z,34.95
2023-05-05T21:31:57.435Z,34.58
2023-05-05T21:34:26.973Z,35.15
2023-05-05T21:36:56.367Z,34.88
2023-05-05T21:39:25.796Z,34.58
2023-05-05T21:41:55.503Z,34.72
2023-05-05T21:44:26.454Z,32.97
2023-05-05T21:46:55.902Z,34.67
2023-05-05T21:49:25.364Z,34.28
2023-05-05T21:51:54.364Z,35.13
2023-05-05T21:54:23.658Z,35.35
2023-05-05T21:56:52.900Z,33.15
2023-05-05T21:59:22.482Z,34.42
2023-05-05T22:01:51.989Z,33.95
2023-05-05T22:04:21.182Z,34.92
2023-05-05T22:06:50.188Z,33.92
2023-05-05T22:09:19.657Z,34.42
2023-05-05T22:11:48.780Z,34.63
2023-05-05T22:14:18.182Z,34.53
2023-05-05T22:16:47.647Z,34.65
2023-05-05T22:19:17.436Z,34.08
2023-05-05T22:21:46.559Z,33.33
2023-05-05T22:24:15.852Z,32.05
2023-05-05T22:26:45.013Z,33.08
2023-05-05T22:29:14.594Z,32.03
2023-05-05T22:31:43.703Z,33.50
2023-05-05T22:34:12.978Z,32.10
2023-05-05T22:36:43.373Z,33.03
2023-05-05T22:39:12.826Z,32.83
2023-05-05T22:41:42.301Z,32.35
2023-05-05T22:44:11.504Z,33.30
2023-05-05T22:46:40.610Z,32.92
2023-05-05T22:49:10.625Z,32.60
2023-05-05T22:51:40.273Z,32.67
2023-05-05T22:54:09.452Z,35.08
2023-05-05T22:56:38.864Z,34.20
2023-05-05T22:59:08.127Z,33.30
2023-05-05T23:01:37.872Z,33.45
2023-05-05T23:04:07.748Z,33.35
2023-05-05T23:06:37.116Z,33.28
2023-05-05T23:09:06.478Z,32.38
2023-05-05T23:11:35.678Z,32.00
2023-05-05T23:14:04.970Z,32.67
2023-05-05T23:16:34.692Z,33.25
2023-05-05T23:19:03.811Z,34.70
2023-05-05T23:21:38.880Z,33.17
2023-05-05T23:24:15.033Z,34.17
2023-05-05T23:26:44.686Z,34.60
2023-05-05T23:29:13.955Z,33.15
2023-05-05T23:31:43.148Z,33.33
2023-05-05T23:34:12.637Z,34.70
2023-05-05T23:36:41.741Z,35.30
2023-05-05T23:39:11.385Z,35.33
2023-05-05T23:41:40.756Z,34.38
2023-05-05T23:44:09.966Z,33.33
2023-05-05T23:46:39.570Z,33.10
2023-05-05T23:49:08.997Z,34.53
2023-05-05T23:51:38.581Z,34.10
2023-05-05T23:54:07.743Z,33.58
2023-05-05T23:56:37.574Z,35.50
2023-05-05T23:59:07.328Z,35.08
